sensor_id;sensor_type;location;lat;lon;timestamp;P1;durP1;ratioP1;P2;durP2;ratioP2
69226;SDS011;56334;52.398;7.552;2024-02-04T00:00:50;17.67;;;6.18;;
69226;SDS011;56334;52.398;7.552;2024-02-04T00:03:16;17.27;;;6.70;;
69226;SDS011;56334;52.398;7.552;2024-02-04T00:05:42;16.08;;;6.30;;
69226;SDS011;56334;52.398;7.552;2024-02-04T00:08:08;14.85;;;5.93;;
69226;SDS011;56334;52.398;7.552;2024-02-04T00:10:34;19.02;;;7.00;;
69226;SDS011;56334;52.398;7.552;2024-02-04T00:13:00;18.77;;;7.22;;
69226;SDS011;56334;52.398;7.552;2024-02-04T00:15:26;18.67;;;7.53;;
69226;SDS011;56334;52.398;7.552;2024-02-04T00:17:52;23.15;;;7.25;;
69226;SDS011;56334;52.398;7.552;2024-02-04T00:20:18;18.20;;;7.32;;
69226;SDS011;56334;52.398;7.552;2024-02-04T00:22:44;21.00;;;7.50;;
69226;SDS011;56334;52.398;7.552;2024-02-04T00:25:10;19.48;;;7.47;;
69226;SDS011;56334;52.398;7.552;2024-02-04T00:27:37;21.58;;;8.02;;
69226;SDS011;56334;52.398;7.552;2024-02-04T00:30:03;22.60;;;8.57;;
69226;SDS011;56334;52.398;7.552;2024-02-04T00:32:30;21.15;;;8.45;;
69226;SDS011;56334;52.398;7.552;2024-02-04T00:34:57;20.10;;;8.25;;
69226;SDS011;56334;52.398;7.552;2024-02-04T00:37:23;20.75;;;7.57;;
69226;SDS011;56334;52.398;7.552;2024-02-04T00:39:49;20.33;;;8.95;;
69226;SDS011;56334;52.398;7.552;2024-02-04T00:42:15;22.55;;;9.13;;
69226;SDS011;56334;52.398;7.552;2024-02-04T00:44:41;27.92;;;8.80;;
69226;SDS011;56334;52.398;7.552;2024-02-04T00:47:07;23.15;;;9.95;;
69226;SDS011;56334;52.398;7.552;2024-02-04T00:49:33;19.33;;;8.48;;
69226;SDS011;56334;52.398;7.552;2024-02-04T00:51:59;23.30;;;9.30;;
69226;SDS011;56334;52.398;7.552;2024-02-04T00:54:25;24.23;;;9.95;;
69226;SDS011;56334;52.398;7.552;2024-02-04T00:56:52;26.63;;;9.82;;
69226;SDS011;56334;52.398;7.552;2024-02-04T00:59:18;25.77;;;10.10;;
69226;SDS011;56334;52.398;7.552;2024-02-04T01:01:43;27.83;;;10.85;;
69226;SDS011;56334;52.398;7.552;2024-02-04T01:04:09;26.13;;;10.10;;
69226;SDS011;56334;52.398;7.552;2024-02-04T01:06:35;25.85;;;10.05;;
69226;SDS011;56334;52.398;7.552;2024-02-04T01:09:01;28.95;;;11.82;;
69226;SDS011;56334;52.398;7.552;2024-02-04T01:11:27;27.08;;;11.02;;
69226;SDS011;56334;52.398;7.552;2024-02-04T01:13:54;27.25;;;11.27;;
69226;SDS011;56334;52.398;7.552;2024-02-04T01:16:21;27.50;;;10.48;;
69226;SDS011;56334;52.398;7.552;2024-02-04T01:18:47;28.13;;;11.05;;
69226;SDS011;56334;52.398;7.552;2024-02-04T01:21:13;26.90;;;11.52;;
69226;SDS011;56334;52.398;7.552;2024-02-04T01:23:39;28.42;;;12.65;;
69226;SDS011;56334;52.398;7.552;2024-02-04T01:26:05;27.52;;;12.07;;
69226;SDS011;56334;52.398;7.552;2024-02-04T01:28:31;29.05;;;11.95;;
69226;SDS011;56334;52.398;7.552;2024-02-04T01:30:57;30.85;;;12.07;;
69226;SDS011;56334;52.398;7.552;2024-02-04T01:33:23;32.05;;;12.02;;
69226;SDS011;56334;52.398;7.552;2024-02-04T01:35:49;28.52;;;11.57;;
69226;SDS011;56334;52.398;7.552;2024-02-04T01:38:15;28.67;;;11.55;;
69226;SDS011;56334;52.398;7.552;2024-02-04T01:40:41;29.33;;;12.10;;
69226;SDS011;56334;52.398;7.552;2024-02-04T01:43:07;28.90;;;11.68;;
69226;SDS011;56334;52.398;7.552;2024-02-04T01:45:33;29.92;;;11.65;;
69226;SDS011;56334;52.398;7.552;2024-02-04T01:47:59;26.95;;;11.00;;
69226;SDS011;56334;52.398;7.552;2024-02-04T01:50:25;25.02;;;10.27;;
69226;SDS011;56334;52.398;7.552;2024-02-04T01:52:51;23.65;;;9.25;;
69226;SDS011;56334;52.398;7.552;2024-02-04T01:55:17;26.40;;;10.50;;
69226;SDS011;56334;52.398;7.552;2024-02-04T01:57:44;25.95;;;9.93;;
69226;SDS011;56334;52.398;7.552;2024-02-04T02:00:12;22.98;;;8.52;;
69226;SDS011;56334;52.398;7.552;2024-02-04T02:02:39;23.55;;;9.13;;
69226;SDS011;56334;52.398;7.552;2024-02-04T02:05:05;25.05;;;9.15;;
69226;SDS011;56334;52.398;7.552;2024-02-04T02:07:31;22.02;;;8.85;;
69226;SDS011;56334;52.398;7.552;2024-02-04T02:09:57;22.00;;;8.38;;
69226;SDS011;56334;52.398;7.552;2024-02-04T02:12:30;24.88;;;8.50;;
69226;SDS011;56334;52.398;7.552;2024-02-04T02:15:01;20.75;;;8.00;;
69226;SDS011;56334;52.398;7.552;2024-02-04T02:17:38;21.25;;;9.02;;
69226;SDS011;56334;52.398;7.552;2024-02-04T02:20:14;21.73;;;7.80;;
69226;SDS011;56334;52.398;7.552;2024-02-04T02:22:50;20.77;;;7.72;;
69226;SDS011;56334;52.398;7.552;2024-02-04T02:25:16;20.27;;;7.38;;
69226;SDS011;56334;52.398;7.552;2024-02-04T02:27:49;20.80;;;7.70;;
69226;SDS011;56334;52.398;7.552;2024-02-04T02:30:15;20.15;;;7.28;;
69226;SDS011;56334;52.398;7.552;2024-02-04T02:32:43;22.08;;;7.53;;
69226;SDS011;56334;52.398;7.552;2024-02-04T02:37:36;19.70;;;6.43;;
69226;SDS011;56334;52.398;7.552;2024-02-04T02:42:51;17.77;;;6.63;;
69226;SDS011;56334;52.398;7.552;2024-02-04T02:45:19;20.73;;;6.80;;
69226;SDS011;56334;52.398;7.552;2024-02-04T02:47:45;17.83;;;6.63;;
69226;SDS011;56334;52.398;7.552;2024-02-04T02:50:12;18.70;;;6.68;;
69226;SDS011;56334;52.398;7.552;2024-02-04T02:52:38;18.20;;;6.82;;
69226;SDS011;56334;52.398;7.552;2024-02-04T02:55:04;16.55;;;6.45;;
69226;SDS011;56334;52.398;7.552;2024-02-04T02:57:30;19.60;;;7.28;;
69226;SDS011;56334;52.398;7.552;2024-02-04T02:59:56;15.77;;;5.97;;
69226;SDS011;56334;52.398;7.552;2024-02-04T03:02:22;18.52;;;7.00;;
69226;SDS011;56334;52.398;7.552;2024-02-04T03:04:48;16.65;;;6.40;;
69226;SDS011;56334;52.398;7.552;2024-02-04T03:07:14;17.02;;;5.32;;
69226;SDS011;56334;52.398;7.552;2024-02-04T03:09:40;16.15;;;7.05;;
69226;SDS011;56334;52.398;7.552;2024-02-04T03:12:06;18.05;;;5.70;;
69226;SDS011;56334;52.398;7.552;2024-02-04T03:14:33;16.38;;;6.60;;
69226;SDS011;56334;52.398;7.552;2024-02-04T03:16:59;18.48;;;6.97;;
69226;SDS011;56334;52.398;7.552;2024-02-04T03:19:25;19.70;;;6.80;;
69226;SDS011;56334;52.398;7.552;2024-02-04T03:21:50;15.25;;;5.57;;
69226;SDS011;56334;52.398;7.552;2024-02-04T03:24:16;14.32;;;5.95;;
69226;SDS011;56334;52.398;7.552;2024-02-04T03:26:42;12.07;;;5.38;;
69226;SDS011;56334;52.398;7.552;2024-02-04T03:29:08;19.83;;;6.50;;
69226;SDS011;56334;52.398;7.552;2024-02-04T03:31:34;14.88;;;5.95;;
69226;SDS011;56334;52.398;7.552;2024-02-04T03:34:01;14.57;;;5.65;;
69226;SDS011;56334;52.398;7.552;2024-02-04T03:36:27;13.20;;;5.30;;
69226;SDS011;56334;52.398;7.552;2024-02-04T03:38:53;17.13;;;5.80;;
69226;SDS011;56334;52.398;7.552;2024-02-04T03:41:19;14.82;;;5.78;;
69226;SDS011;56334;52.398;7.552;2024-02-04T03:43:45;17.63;;;6.38;;
69226;SDS011;56334;52.398;7.552;2024-02-04T03:46:15;16.02;;;6.38;;
69226;SDS011;56334;52.398;7.552;2024-02-04T03:48:41;16.88;;;6.18;;
69226;SDS011;56334;52.398;7.552;2024-02-04T03:51:07;16.38;;;6.32;;
69226;SDS011;56334;52.398;7.552;2024-02-04T03:53:33;19.17;;;6.78;;
69226;SDS011;56334;52.398;7.552;2024-02-04T03:55:59;17.60;;;6.40;;
69226;SDS011;56334;52.398;7.552;2024-02-04T03:58:25;15.52;;;5.95;;
69226;SDS011;56334;52.398;7.552;2024-02-04T04:00:55;17.23;;;6.63;;
69226;SDS011;56334;52.398;7.552;2024-02-04T04:03:21;18.10;;;6.53;;
69226;SDS011;56334;52.398;7.552;2024-02-04T04:05:48;17.52;;;6.90;;
69226;SDS011;56334;52.398;7.552;2024-02-04T04:08:14;17.85;;;7.25;;
69226;SDS011;56334;52.398;7.552;2024-02-04T04:10:40;14.35;;;6.43;;
69226;SDS011;56334;52.398;7.552;2024-02-04T04:13:06;16.95;;;7.00;;
69226;SDS011;56334;52.398;7.552;2024-02-04T04:15:32;15.43;;;5.25;;
69226;SDS011;56334;52.398;7.552;2024-02-04T04:17:58;17.02;;;5.57;;
69226;SDS011;56334;52.398;7.552;2024-02-04T04:20:24;15.07;;;5.47;;
69226;SDS011;56334;52.398;7.552;2024-02-04T04:22:50;13.30;;;4.72;;
69226;SDS011;56334;52.398;7.552;2024-02-04T04:25:16;12.82;;;5.07;;
69226;SDS011;56334;52.398;7.552;2024-02-04T04:27:42;11.90;;;4.30;;
69226;SDS011;56334;52.398;7.552;2024-02-04T04:30:09;14.55;;;4.32;;
69226;SDS011;56334;52.398;7.552;2024-02-04T04:32:35;11.75;;;4.38;;
69226;SDS011;56334;52.398;7.552;2024-02-04T04:35:01;12.15;;;4.53;;
69226;SDS011;56334;52.398;7.552;2024-02-04T04:37:27;11.32;;;4.30;;
69226;SDS011;56334;52.398;7.552;2024-02-04T04:39:53;12.50;;;4.38;;
69226;SDS011;56334;52.398;7.552;2024-02-04T04:42:21;16.05;;;4.78;;
69226;SDS011;56334;52.398;7.552;2024-02-04T04:44:47;14.18;;;4.55;;
69226;SDS011;56334;52.398;7.552;2024-02-04T04:47:14;13.38;;;4.95;;
69226;SDS011;56334;52.398;7.552;2024-02-04T04:49:40;13.90;;;4.82;;
69226;SDS011;56334;52.398;7.552;2024-02-04T04:52:06;11.60;;;4.90;;
69226;SDS011;56334;52.398;7.552;2024-02-04T04:54:33;12.10;;;4.35;;
69226;SDS011;56334;52.398;7.552;2024-02-04T04:56:59;13.55;;;5.20;;
69226;SDS011;56334;52.398;7.552;2024-02-04T04:59:25;14.30;;;5.00;;
69226;SDS011;56334;52.398;7.552;2024-02-04T05:01:50;11.85;;;4.57;;
69226;SDS011;56334;52.398;7.552;2024-02-04T05:04:16;10.13;;;4.30;;
69226;SDS011;56334;52.398;7.552;2024-02-04T05:06:50;12.48;;;3.90;;
69226;SDS011;56334;52.398;7.552;2024-02-04T05:09:15;10.82;;;4.15;;
69226;SDS011;56334;52.398;7.552;2024-02-04T05:11:41;9.15;;;2.88;;
69226;SDS011;56334;52.398;7.552;2024-02-04T05:14:07;9.50;;;2.47;;
69226;SDS011;56334;52.398;7.552;2024-02-04T05:16:34;9.18;;;3.13;;
69226;SDS011;56334;52.398;7.552;2024-02-04T05:19:01;8.45;;;3.00;;
69226;SDS011;56334;52.398;7.552;2024-02-04T05:21:27;10.02;;;2.75;;
69226;SDS011;56334;52.398;7.552;2024-02-04T05:23:53;10.80;;;2.78;;
69226;SDS011;56334;52.398;7.552;2024-02-04T05:26:19;9.65;;;2.60;;
69226;SDS011;56334;52.398;7.552;2024-02-04T05:28:45;12.45;;;2.67;;
69226;SDS011;56334;52.398;7.552;2024-02-04T05:31:11;10.82;;;3.30;;
69226;SDS011;56334;52.398;7.552;2024-02-04T05:33:37;12.52;;;3.10;;
69226;SDS011;56334;52.398;7.552;2024-02-04T05:36:03;10.50;;;2.90;;
69226;SDS011;56334;52.398;7.552;2024-02-04T05:38:30;10.13;;;2.70;;
69226;SDS011;56334;52.398;7.552;2024-02-04T05:40:56;10.38;;;2.17;;
69226;SDS011;56334;52.398;7.552;2024-02-04T05:43:22;8.27;;;2.05;;
69226;SDS011;56334;52.398;7.552;2024-02-04T05:45:48;10.57;;;2.50;;
69226;SDS011;56334;52.398;7.552;2024-02-04T05:48:14;10.18;;;3.28;;
69226;SDS011;56334;52.398;7.552;2024-02-04T05:50:40;9.85;;;2.30;;
69226;SDS011;56334;52.398;7.552;2024-02-04T05:53:06;10.05;;;2.70;;
69226;SDS011;56334;52.398;7.552;2024-02-04T05:55:32;11.82;;;3.05;;
69226;SDS011;56334;52.398;7.552;2024-02-04T05:57:58;9.27;;;2.38;;
69226;SDS011;56334;52.398;7.552;2024-02-04T06:00:24;8.55;;;2.20;;
69226;SDS011;56334;52.398;7.552;2024-02-04T06:02:51;8.82;;;2.22;;
69226;SDS011;56334;52.398;7.552;2024-02-04T06:05:17;9.70;;;2.50;;
69226;SDS011;56334;52.398;7.552;2024-02-04T06:07:43;10.27;;;1.90;;
69226;SDS011;56334;52.398;7.552;2024-02-04T06:10:09;9.77;;;2.08;;
69226;SDS011;56334;52.398;7.552;2024-02-04T06:12:35;8.02;;;1.80;;
69226;SDS011;56334;52.398;7.552;2024-02-04T06:15:02;9.98;;;2.20;;
69226;SDS011;56334;52.398;7.552;2024-02-04T06:17:28;8.52;;;1.88;;
69226;SDS011;56334;52.398;7.552;2024-02-04T06:19:54;12.27;;;1.92;;
69226;SDS011;56334;52.398;7.552;2024-02-04T06:22:21;9.68;;;1.38;;
69226;SDS011;56334;52.398;7.552;2024-02-04T06:24:47;8.65;;;1.80;;
69226;SDS011;56334;52.398;7.552;2024-02-04T06:27:15;7.55;;;1.80;;
69226;SDS011;56334;52.398;7.552;2024-02-04T06:29:41;6.68;;;1.33;;
69226;SDS011;56334;52.398;7.552;2024-02-04T06:32:07;8.85;;;1.67;;
69226;SDS011;56334;52.398;7.552;2024-02-04T06:34:33;8.00;;;1.75;;
69226;SDS011;56334;52.398;7.552;2024-02-04T06:36:59;6.65;;;1.40;;
69226;SDS011;56334;52.398;7.552;2024-02-04T06:39:25;11.25;;;1.63;;
69226;SDS011;56334;52.398;7.552;2024-02-04T06:41:51;10.98;;;2.55;;
69226;SDS011;56334;52.398;7.552;2024-02-04T06:44:17;7.00;;;1.58;;
69226;SDS011;56334;52.398;7.552;2024-02-04T06:46:43;9.57;;;1.70;;
69226;SDS011;56334;52.398;7.552;2024-02-04T06:49:09;7.82;;;1.65;;
69226;SDS011;56334;52.398;7.552;2024-02-04T06:51:35;5.78;;;1.30;;
69226;SDS011;56334;52.398;7.552;2024-02-04T06:54:01;8.13;;;1.60;;
69226;SDS011;56334;52.398;7.552;2024-02-04T06:56:27;8.25;;;2.15;;
69226;SDS011;56334;52.398;7.552;2024-02-04T06:58:53;10.05;;;1.77;;
69226;SDS011;56334;52.398;7.552;2024-02-04T07:01:19;9.20;;;1.50;;
69226;SDS011;56334;52.398;7.552;2024-02-04T07:03:45;8.65;;;1.60;;
69226;SDS011;56334;52.398;7.552;2024-02-04T07:06:11;12.05;;;1.60;;
69226;SDS011;56334;52.398;7.552;2024-02-04T07:08:37;6.13;;;1.42;;
69226;SDS011;56334;52.398;7.552;2024-02-04T07:11:03;14.68;;;1.63;;
69226;SDS011;56334;52.398;7.552;2024-02-04T07:13:29;7.28;;;1.70;;
69226;SDS011;56334;52.398;7.552;2024-02-04T07:15:55;9.77;;;1.73;;
69226;SDS011;56334;52.398;7.552;2024-02-04T07:18:21;7.55;;;1.80;;
69226;SDS011;56334;52.398;7.552;2024-02-04T07:20:47;9.13;;;1.30;;
69226;SDS011;56334;52.398;7.552;2024-02-04T07:23:13;8.10;;;1.52;;
69226;SDS011;56334;52.398;7.552;2024-02-04T07:25:39;8.82;;;1.40;;
69226;SDS011;56334;52.398;7.552;2024-02-04T07:28:05;10.10;;;1.90;;
69226;SDS011;56334;52.398;7.552;2024-02-04T07:30:31;8.88;;;1.70;;
69226;SDS011;56334;52.398;7.552;2024-02-04T07:32:57;8.23;;;1.50;;
69226;SDS011;56334;52.398;7.552;2024-02-04T07:35:23;8.27;;;1.38;;
69226;SDS011;56334;52.398;7.552;2024-02-04T07:37:49;10.23;;;1.67;;
69226;SDS011;56334;52.398;7.552;2024-02-04T07:40:16;9.00;;;1.40;;
69226;SDS011;56334;52.398;7.552;2024-02-04T07:42:42;9.90;;;1.58;;
69226;SDS011;56334;52.398;7.552;2024-02-04T07:45:08;7.68;;;1.38;;
69226;SDS011;56334;52.398;7.552;2024-02-04T07:47:35;7.45;;;1.35;;
69226;SDS011;56334;52.398;7.552;2024-02-04T07:50:01;10.48;;;1.63;;
69226;SDS011;56334;52.398;7.552;2024-02-04T07:52:27;10.23;;;1.63;;
69226;SDS011;56334;52.398;7.552;2024-02-04T07:54:53;14.07;;;2.15;;
69226;SDS011;56334;52.398;7.552;2024-02-04T07:57:19;14.18;;;1.60;;
69226;SDS011;56334;52.398;7.552;2024-02-04T07:59:45;7.85;;;1.33;;
69226;SDS011;56334;52.398;7.552;2024-02-04T08:02:12;11.45;;;1.60;;
69226;SDS011;56334;52.398;7.552;2024-02-04T08:04:39;12.35;;;1.77;;
69226;SDS011;56334;52.398;7.552;2024-02-04T08:07:06;12.85;;;1.90;;
69226;SDS011;56334;52.398;7.552;2024-02-04T08:09:32;9.40;;;2.08;;
69226;SDS011;56334;52.398;7.552;2024-02-04T08:11:58;9.80;;;1.42;;
69226;SDS011;56334;52.398;7.552;2024-02-04T08:14:24;10.65;;;1.70;;
69226;SDS011;56334;52.398;7.552;2024-02-04T08:16:50;9.57;;;1.50;;
69226;SDS011;56334;52.398;7.552;2024-02-04T08:19:16;9.07;;;1.45;;
69226;SDS011;56334;52.398;7.552;2024-02-04T08:21:42;9.43;;;1.98;;
69226;SDS011;56334;52.398;7.552;2024-02-04T08:24:08;10.00;;;2.22;;
69226;SDS011;56334;52.398;7.552;2024-02-04T08:26:34;10.95;;;2.35;;
69226;SDS011;56334;52.398;7.552;2024-02-04T08:29:00;11.65;;;1.63;;
69226;SDS011;56334;52.398;7.552;2024-02-04T08:31:26;10.02;;;1.88;;
69226;SDS011;56334;52.398;7.552;2024-02-04T08:33:52;10.63;;;1.42;;
69226;SDS011;56334;52.398;7.552;2024-02-04T08:36:18;10.57;;;1.88;;
69226;SDS011;56334;52.398;7.552;2024-02-04T08:38:44;10.10;;;1.80;;
69226;SDS011;56334;52.398;7.552;2024-02-04T08:41:10;9.15;;;1.80;;
69226;SDS011;56334;52.398;7.552;2024-02-04T08:43:36;7.25;;;1.80;;
69226;SDS011;56334;52.398;7.552;2024-02-04T08:46:02;6.68;;;1.50;;
69226;SDS011;56334;52.398;7.552;2024-02-04T08:48:28;9.32;;;2.30;;
69226;SDS011;56334;52.398;7.552;2024-02-04T08:50:54;8.13;;;1.48;;
69226;SDS011;56334;52.398;7.552;2024-02-04T08:53:20;11.35;;;2.00;;
69226;SDS011;56334;52.398;7.552;2024-02-04T08:55:48;8.02;;;1.73;;
69226;SDS011;56334;52.398;7.552;2024-02-04T08:58:14;9.63;;;1.50;;
69226;SDS011;56334;52.398;7.552;2024-02-04T09:00:40;8.10;;;1.70;;
69226;SDS011;56334;52.398;7.552;2024-02-04T09:03:06;12.90;;;1.85;;
69226;SDS011;56334;52.398;7.552;2024-02-04T09:05:32;8.45;;;1.25;;
69226;SDS011;56334;52.398;7.552;2024-02-04T09:07:58;7.88;;;1.30;;
69226;SDS011;56334;52.398;7.552;2024-02-04T09:10:24;7.10;;;1.30;;
69226;SDS011;56334;52.398;7.552;2024-02-04T09:12:51;9.57;;;1.50;;
69226;SDS011;56334;52.398;7.552;2024-02-04T09:15:17;6.60;;;1.48;;
69226;SDS011;56334;52.398;7.552;2024-02-04T09:17:43;5.15;;;1.23;;
69226;SDS011;56334;52.398;7.552;2024-02-04T09:20:09;9.95;;;1.63;;
69226;SDS011;56334;52.398;7.552;2024-02-04T09:22:35;10.82;;;1.77;;
69226;SDS011;56334;52.398;7.552;2024-02-04T09:25:01;8.85;;;1.88;;
69226;SDS011;56334;52.398;7.552;2024-02-04T09:27:27;7.78;;;1.50;;
69226;SDS011;56334;52.398;7.552;2024-02-04T09:29:53;9.77;;;2.00;;
69226;SDS011;56334;52.398;7.552;2024-02-04T09:32:20;7.40;;;1.50;;
69226;SDS011;56334;52.398;7.552;2024-02-04T09:34:46;6.63;;;1.30;;
69226;SDS011;56334;52.398;7.552;2024-02-04T09:37:12;7.28;;;1.35;;
69226;SDS011;56334;52.398;7.552;2024-02-04T09:39:38;8.02;;;1.60;;
69226;SDS011;56334;52.398;7.552;2024-02-04T09:42:04;8.98;;;1.63;;
69226;SDS011;56334;52.398;7.552;2024-02-04T09:44:31;8.98;;;1.20;;
69226;SDS011;56334;52.398;7.552;2024-02-04T09:46:57;6.03;;;1.23;;
69226;SDS011;56334;52.398;7.552;2024-02-04T09:49:26;5.97;;;1.20;;
69226;SDS011;56334;52.398;7.552;2024-02-04T09:54:18;11.18;;;1.60;;
69226;SDS011;56334;52.398;7.552;2024-02-04T09:56:46;7.35;;;1.10;;
69226;SDS011;56334;52.398;7.552;2024-02-04T09:59:15;6.88;;;1.30;;
69226;SDS011;56334;52.398;7.552;2024-02-04T10:01:41;5.70;;;1.10;;
69226;SDS011;56334;52.398;7.552;2024-02-04T10:04:09;8.27;;;1.38;;
69226;SDS011;56334;52.398;7.552;2024-02-04T10:06:35;6.00;;;1.20;;
69226;SDS011;56334;52.398;7.552;2024-02-04T10:09:01;6.65;;;1.23;;
69226;SDS011;56334;52.398;7.552;2024-02-04T10:11:27;5.10;;;1.02;;
69226;SDS011;56334;52.398;7.552;2024-02-04T10:13:53;7.90;;;1.02;;
69226;SDS011;56334;52.398;7.552;2024-02-04T10:16:19;5.22;;;1.15;;
69226;SDS011;56334;52.398;7.552;2024-02-04T10:18:46;4.57;;;1.17;;
69226;SDS011;56334;52.398;7.552;2024-02-04T10:21:17;5.68;;;1.10;;
69226;SDS011;56334;52.398;7.552;2024-02-04T10:23:44;5.72;;;1.08;;
69226;SDS011;56334;52.398;7.552;2024-02-04T10:26:10;4.78;;;0.95;;
69226;SDS011;56334;52.398;7.552;2024-02-04T10:28:37;5.65;;;1.48;;
69226;SDS011;56334;52.398;7.552;2024-02-04T10:31:03;4.20;;;0.93;;
69226;SDS011;56334;52.398;7.552;2024-02-04T10:33:32;6.35;;;1.38;;
69226;SDS011;56334;52.398;7.552;2024-02-04T10:35:58;7.88;;;1.10;;
69226;SDS011;56334;52.398;7.552;2024-02-04T10:38:24;5.10;;;1.45;;
69226;SDS011;56334;52.398;7.552;2024-02-04T10:40:52;6.22;;;1.30;;
69226;SDS011;56334;52.398;7.552;2024-02-04T10:43:19;4.60;;;1.20;;
69226;SDS011;56334;52.398;7.552;2024-02-04T10:45:46;4.53;;;1.17;;
69226;SDS011;56334;52.398;7.552;2024-02-04T10:48:14;5.38;;;1.33;;
69226;SDS011;56334;52.398;7.552;2024-02-04T10:50:41;8.43;;;1.70;;
69226;SDS011;56334;52.398;7.552;2024-02-04T10:53:08;6.68;;;1.63;;
69226;SDS011;56334;52.398;7.552;2024-02-04T10:55:38;7.50;;;1.60;;
69226;SDS011;56334;52.398;7.552;2024-02-04T10:58:07;7.53;;;1.75;;
69226;SDS011;56334;52.398;7.552;2024-02-04T11:00:33;6.10;;;1.63;;
69226;SDS011;56334;52.398;7.552;2024-02-04T11:02:59;7.90;;;1.65;;
69226;SDS011;56334;52.398;7.552;2024-02-04T11:05:26;6.65;;;1.88;;
69226;SDS011;56334;52.398;7.552;2024-02-04T11:07:52;8.23;;;1.40;;
69226;SDS011;56334;52.398;7.552;2024-02-04T11:10:18;7.28;;;2.05;;
69226;SDS011;56334;52.398;7.552;2024-02-04T11:12:44;7.20;;;1.92;;
69226;SDS011;56334;52.398;7.552;2024-02-04T11:15:12;5.95;;;1.40;;
69226;SDS011;56334;52.398;7.552;2024-02-04T11:28:00;6.43;;;1.70;;
69226;SDS011;56334;52.398;7.552;2024-02-04T11:30:26;6.35;;;1.52;;
69226;SDS011;56334;52.398;7.552;2024-02-04T11:32:52;7.20;;;1.88;;
69226;SDS011;56334;52.398;7.552;2024-02-04T11:35:19;7.60;;;1.80;;
69226;SDS011;56334;52.398;7.552;2024-02-04T11:37:46;9.75;;;2.20;;
69226;SDS011;56334;52.398;7.552;2024-02-04T11:40:15;7.47;;;2.17;;
69226;SDS011;56334;52.398;7.552;2024-02-04T11:42:41;8.32;;;2.92;;
69226;SDS011;56334;52.398;7.552;2024-02-04T11:45:08;7.65;;;2.63;;
69226;SDS011;56334;52.398;7.552;2024-02-04T11:47:36;7.97;;;2.92;;
69226;SDS011;56334;52.398;7.552;2024-02-04T11:52:28;9.85;;;2.70;;
69226;SDS011;56334;52.398;7.552;2024-02-04T11:54:54;9.35;;;3.15;;
69226;SDS011;56334;52.398;7.552;2024-02-04T11:57:20;8.70;;;3.22;;
69226;SDS011;56334;52.398;7.552;2024-02-04T11:59:47;9.32;;;3.63;;
69226;SDS011;56334;52.398;7.552;2024-02-04T12:02:15;8.35;;;3.30;;
69226;SDS011;56334;52.398;7.552;2024-02-04T12:04:42;8.43;;;3.13;;
69226;SDS011;56334;52.398;7.552;2024-02-04T12:07:09;11.15;;;2.90;;
69226;SDS011;56334;52.398;7.552;2024-02-04T12:09:35;11.25;;;3.72;;
69226;SDS011;56334;52.398;7.552;2024-02-04T12:12:02;9.75;;;3.28;;
69226;SDS011;56334;52.398;7.552;2024-02-04T12:14:28;12.75;;;4.30;;
69226;SDS011;56334;52.398;7.552;2024-02-04T12:16:54;9.63;;;3.28;;
69226;SDS011;56334;52.398;7.552;2024-02-04T12:19:21;10.85;;;3.20;;
69226;SDS011;56334;52.398;7.552;2024-02-04T12:21:47;10.55;;;3.67;;
69226;SDS011;56334;52.398;7.552;2024-02-04T12:24:13;8.80;;;3.55;;
69226;SDS011;56334;52.398;7.552;2024-02-04T12:26:39;11.27;;;3.20;;
69226;SDS011;56334;52.398;7.552;2024-02-04T12:29:06;9.85;;;3.17;;
69226;SDS011;56334;52.398;7.552;2024-02-04T12:31:32;8.77;;;3.03;;
69226;SDS011;56334;52.398;7.552;2024-02-04T12:33:58;9.25;;;2.92;;
69226;SDS011;56334;52.398;7.552;2024-02-04T12:36:29;8.55;;;2.40;;
69226;SDS011;56334;52.398;7.552;2024-02-04T12:38:59;9.25;;;2.60;;
69226;SDS011;56334;52.398;7.552;2024-02-04T12:41:28;8.15;;;2.58;;
69226;SDS011;56334;52.398;7.552;2024-02-04T12:43:58;8.20;;;2.50;;
69226;SDS011;56334;52.398;7.552;2024-02-04T12:46:30;7.35;;;2.13;;
69226;SDS011;56334;52.398;7.552;2024-02-04T12:48:58;7.03;;;2.08;;
69226;SDS011;56334;52.398;7.552;2024-02-04T12:51:28;9.20;;;2.08;;
69226;SDS011;56334;52.398;7.552;2024-02-04T12:54:08;6.47;;;1.80;;
69226;SDS011;56334;52.398;7.552;2024-02-04T12:56:45;5.30;;;1.10;;
69226;SDS011;56334;52.398;7.552;2024-02-04T12:59:25;3.92;;;1.00;;
69226;SDS011;56334;52.398;7.552;2024-02-04T13:01:53;3.50;;;0.82;;
69226;SDS011;56334;52.398;7.552;2024-02-04T13:04:19;6.72;;;1.20;;
69226;SDS011;56334;52.398;7.552;2024-02-04T13:06:45;5.50;;;1.10;;
69226;SDS011;56334;52.398;7.552;2024-02-04T13:09:13;5.75;;;1.08;;
69226;SDS011;56334;52.398;7.552;2024-02-04T13:11:40;4.10;;;0.80;;
69226;SDS011;56334;52.398;7.552;2024-02-04T13:14:07;3.65;;;0.90;;
69226;SDS011;56334;52.398;7.552;2024-02-04T13:16:33;6.80;;;1.17;;
69226;SDS011;56334;52.398;7.552;2024-02-04T13:19:01;6.18;;;1.10;;
69226;SDS011;56334;52.398;7.552;2024-02-04T13:21:27;3.53;;;0.90;;
69226;SDS011;56334;52.398;7.552;2024-02-04T13:23:54;5.25;;;0.80;;
69226;SDS011;56334;52.398;7.552;2024-02-04T13:26:20;5.55;;;0.82;;
69226;SDS011;56334;52.398;7.552;2024-02-04T13:28:46;4.40;;;1.05;;
69226;SDS011;56334;52.398;7.552;2024-02-04T13:31:12;4.95;;;0.80;;
69226;SDS011;56334;52.398;7.552;2024-02-04T13:33:38;3.65;;;0.80;;
69226;SDS011;56334;52.398;7.552;2024-02-04T13:36:05;3.88;;;0.88;;
69226;SDS011;56334;52.398;7.552;2024-02-04T13:38:31;5.72;;;0.90;;
69226;SDS011;56334;52.398;7.552;2024-02-04T13:40:57;4.07;;;0.90;;
69226;SDS011;56334;52.398;7.552;2024-02-04T13:43:24;6.57;;;0.98;;
69226;SDS011;56334;52.398;7.552;2024-02-04T13:45:49;4.05;;;0.90;;
69226;SDS011;56334;52.398;7.552;2024-02-04T13:48:15;6.53;;;1.15;;
69226;SDS011;56334;52.398;7.552;2024-02-04T13:50:43;3.97;;;0.70;;
69226;SDS011;56334;52.398;7.552;2024-02-04T13:53:10;6.25;;;1.27;;
69226;SDS011;56334;52.398;7.552;2024-02-04T13:55:36;5.53;;;1.00;;
69226;SDS011;56334;52.398;7.552;2024-02-04T13:58:04;8.35;;;1.00;;
69226;SDS011;56334;52.398;7.552;2024-02-04T14:00:30;7.38;;;1.30;;
69226;SDS011;56334;52.398;7.552;2024-02-04T14:02:56;5.65;;;1.10;;
69226;SDS011;56334;52.398;7.552;2024-02-04T14:05:22;4.95;;;1.10;;
69226;SDS011;56334;52.398;7.552;2024-02-04T14:07:50;8.15;;;1.42;;
69226;SDS011;56334;52.398;7.552;2024-02-04T14:10:16;7.50;;;1.20;;
69226;SDS011;56334;52.398;7.552;2024-02-04T14:12:42;5.55;;;1.20;;
69226;SDS011;56334;52.398;7.552;2024-02-04T14:15:10;4.50;;;1.00;;
69226;SDS011;56334;52.398;7.552;2024-02-04T14:17:36;6.85;;;1.17;;
69226;SDS011;56334;52.398;7.552;2024-02-04T14:20:02;5.43;;;1.00;;
69226;SDS011;56334;52.398;7.552;2024-02-04T14:22:29;6.63;;;1.50;;
69226;SDS011;56334;52.398;7.552;2024-02-04T14:24:55;9.65;;;1.60;;
69226;SDS011;56334;52.398;7.552;2024-02-04T14:27:21;6.05;;;1.25;;
69226;SDS011;56334;52.398;7.552;2024-02-04T14:29:47;5.78;;;1.15;;
69226;SDS011;56334;52.398;7.552;2024-02-04T14:32:13;4.85;;;1.30;;
69226;SDS011;56334;52.398;7.552;2024-02-04T14:34:39;6.22;;;1.13;;
69226;SDS011;56334;52.398;7.552;2024-02-04T14:37:05;6.25;;;1.40;;
69226;SDS011;56334;52.398;7.552;2024-02-04T14:39:32;5.15;;;1.40;;
69226;SDS011;56334;52.398;7.552;2024-02-04T14:41:58;6.15;;;1.50;;
69226;SDS011;56334;52.398;7.552;2024-02-04T14:44:24;6.85;;;1.75;;
69226;SDS011;56334;52.398;7.552;2024-02-04T14:46:50;6.13;;;1.52;;
69226;SDS011;56334;52.398;7.552;2024-02-04T14:49:16;9.30;;;1.92;;
69226;SDS011;56334;52.398;7.552;2024-02-04T14:51:42;8.88;;;1.80;;
69226;SDS011;56334;52.398;7.552;2024-02-04T14:54:09;6.32;;;1.73;;
69226;SDS011;56334;52.398;7.552;2024-02-04T14:56:38;7.95;;;1.80;;